createdAt,value
2023-01-19T17:02:11.369Z,142.75
2023-01-19T17:03:43.645Z,153.00
2023-01-19T17:05:15.595Z,135.75
2023-01-19T17:06:47.572Z,135.50
2023-01-19T17:08:20.227Z,129.00
2023-01-19T17:09:52.277Z,116.50
2023-01-19T17:11:28.065Z,103.00
2023-01-19T17:13:00.117Z,115.00
2023-01-19T17:14:32.038Z,121.20
2023-01-19T17:16:04.333Z,106.20
2023-01-19T17:17:36.914Z,97.20
2023-01-19T17:19:09.119Z,115.40
2023-01-19T17:20:40.958Z,105.80
2023-01-19T17:22:14.423Z,113.00
2023-01-19T17:23:47.574Z,111.50
2023-01-19T17:25:19.458Z,113.75
2023-01-19T17:26:51.271Z,121.00
2023-01-19T17:28:23.259Z,115.75
2023-01-19T17:29:55.286Z,130.50
2023-01-19T17:31:27.428Z,123.00
2023-01-19T17:32:59.334Z,128.50
2023-01-19T17:34:31.380Z,130.25
2023-01-19T17:36:04.704Z,119.50
2023-01-19T17:37:36.680Z,129.75
2023-01-19T17:39:09.443Z,129.75
2023-01-19T17:40:41.349Z,124.75
2023-01-19T17:42:13.375Z,133.00
2023-01-19T17:43:45.668Z,138.50
2023-01-19T17:45:17.642Z,128.25
2023-01-19T17:46:49.643Z,136.25
2023-01-19T17:48:21.480Z,141.50
2023-01-19T17:49:53.640Z,146.50
2023-01-19T17:51:25.614Z,144.25
2023-01-19T17:52:57.619Z,154.75
2023-01-19T17:54:29.490Z,154.50
2023-01-19T17:56:14.706Z,162.75
2023-01-19T17:57:46.719Z,172.00
2023-01-19T17:59:18.680Z,179.00
2023-01-19T18:00:50.721Z,166.50
2023-01-19T18:02:24.525Z,170.50
2023-01-19T18:03:56.648Z,186.75
2023-01-19T18:05:28.560Z,190.25
2023-01-19T18:07:00.483Z,182.25
2023-01-19T18:08:34.069Z,190.00
2023-01-19T18:10:07.874Z,199.33
2023-01-19T18:11:39.963Z,205.33
2023-01-19T18:13:11.802Z,205.33
2023-01-19T18:14:43.754Z,202.33
2023-01-19T18:16:17.543Z,219.67
2023-01-19T18:17:49.514Z,225.33
2023-01-19T18:19:22.577Z,223.67
2023-01-19T18:20:58.514Z,234.33
2023-01-19T18:22:30.495Z,240.33
2023-01-19T18:24:05.616Z,241.33
2023-01-19T18:25:37.498Z,241.00
2023-01-19T18:27:09.416Z,248.33
2023-01-19T18:28:41.399Z,244.33
2023-01-19T18:30:14.037Z,241.00
2023-01-19T18:31:46.318Z,240.67
2023-01-19T18:33:18.537Z,238.67
2023-01-19T18:34:54.083Z,239.67
2023-01-19T18:36:25.957Z,271.75
2023-01-19T18:37:58.731Z,257.25
2023-01-19T18:39:31.264Z,255.75
2023-01-19T18:41:04.252Z,248.33
2023-01-19T18:42:36.369Z,234.33
2023-01-19T18:44:11.587Z,253.33
2023-01-19T18:45:43.517Z,246.00
2023-01-19T18:47:15.568Z,232.67
2023-01-19T18:48:47.398Z,236.00
2023-01-19T18:50:19.413Z,226.33
2023-01-19T18:51:51.256Z,244.67
2023-01-19T18:53:23.193Z,253.00
2023-01-19T18:54:55.020Z,247.00
2023-01-19T18:56:26.956Z,233.33
2023-01-19T18:57:58.846Z,239.00
2023-01-19T18:59:30.765Z,302.25
2023-01-19T19:01:02.704Z,263.00
2023-01-19T19:02:34.889Z,246.75
2023-01-19T19:04:08.302Z,248.75
2023-01-19T19:05:40.266Z,249.00
2023-01-19T19:07:12.069Z,246.00
2023-01-19T19:08:44.349Z,251.33
2023-01-19T19:10:16.437Z,239.67
2023-01-19T19:11:48.406Z,258.33
2023-01-19T19:13:21.996Z,249.00
2023-01-19T19:14:53.878Z,243.00
2023-01-19T19:16:25.781Z,253.50
2023-01-19T19:17:57.765Z,245.67
2023-01-19T19:19:29.838Z,248.67
2023-01-19T19:21:08.763Z,241.33
2023-01-19T19:22:40.575Z,234.67
2023-01-19T19:24:13.648Z,288.00
2023-01-19T19:25:45.481Z,268.25
2023-01-19T19:27:17.888Z,253.75
2023-01-19T19:28:49.804Z,244.33
2023-01-19T19:30:21.885Z,237.67
2023-01-19T19:31:53.875Z,237.33
2023-01-19T19:33:26.067Z,236.67
2023-01-19T19:34:59.111Z,241.67
2023-01-19T19:36:31.933Z,230.33
2023-01-19T19:38:03.776Z,246.33
2023-01-19T19:39:36.149Z,232.67
2023-01-19T19:41:08.800Z,235.33
2023-01-19T19:42:40.766Z,243.67
2023-01-19T19:44:15.519Z,229.33
2023-01-19T19:46:17.979Z,229.33
2023-01-19T19:47:51.240Z,218.33
2023-01-19T19:49:23.451Z,230.67
2023-01-19T19:50:55.531Z,203.67
2023-01-19T19:52:30.505Z,212.67
2023-01-19T19:54:02.400Z,225.00
2023-01-19T19:55:34.425Z,219.67
2023-01-19T19:57:06.290Z,273.25
2023-01-19T19:58:39.063Z,259.25
2023-01-19T20:00:11.533Z,227.67
2023-01-19T20:01:45.184Z,204.33
2023-01-19T20:03:17.203Z,262.75
2023-01-19T20:04:49.156Z,242.00
2023-01-19T20:06:22.256Z,244.33
2023-01-19T20:07:54.356Z,210.33
2023-01-19T20:09:26.223Z,213.00
2023-01-19T20:11:12.211Z,223.33
2023-01-19T20:12:44.308Z,218.67
2023-01-19T20:14:16.597Z,226.67
2023-01-19T20:15:48.567Z,239.67
2023-01-19T20:17:21.040Z,214.00
2023-01-19T20:18:54.399Z,223.67
2023-01-19T20:20:26.578Z,219.33
2023-01-19T20:21:58.530Z,205.33
2023-01-19T20:23:30.453Z,187.67
2023-01-19T20:25:02.328Z,213.00
2023-01-19T20:26:35.966Z,203.67
2023-01-19T20:28:07.894Z,211.33
2023-01-19T20:29:40.037Z,204.67
2023-01-19T20:31:26.638Z,207.00
2023-01-19T20:32:58.617Z,206.33
2023-01-19T20:34:33.311Z,209.33
2023-01-19T20:36:05.834Z,212.33
2023-01-19T20:37:37.768Z,213.00
2023-01-19T20:39:11.188Z,198.67
2023-01-19T20:40:43.128Z,190.33
2023-01-19T20:42:16.761Z,200.33
2023-01-19T20:43:48.762Z,194.67
2023-01-19T20:45:20.903Z,232.33
2023-01-19T20:46:53.373Z,400.20
2023-01-19T20:48:25.569Z,318.25
2023-01-19T20:49:57.520Z,247.50
2023-01-19T20:51:29.524Z,224.67
2023-01-19T20:53:01.470Z,238.00
2023-01-19T20:54:33.493Z,218.00
2023-01-19T20:56:11.407Z,213.67
2023-01-19T20:57:43.366Z,199.67
2023-01-19T20:59:15.380Z,189.00
2023-01-19T21:00:47.646Z,188.75
2023-01-19T21:02:20.500Z,183.33
2023-01-19T21:03:52.466Z,190.00
2023-01-19T21:05:24.658Z,190.00
2023-01-19T21:06:56.483Z,197.67
2023-01-19T21:08:28.368Z,210.00
2023-01-19T21:10:00.263Z,195.00
2023-01-19T21:11:32.193Z,215.00
2023-01-19T21:13:04.064Z,210.00
2023-01-19T21:14:36.034Z,211.00
2023-01-19T21:16:08.064Z,216.00
2023-01-19T21:17:39.972Z,208.00
2023-01-19T21:19:12.233Z,207.33
2023-01-19T21:20:44.991Z,192.67
2023-01-19T21:22:16.813Z,207.67
2023-01-19T21:23:48.946Z,214.33
2023-01-19T21:25:21.060Z,211.00
2023-01-19T21:26:52.976Z,202.33
2023-01-19T21:28:25.309Z,200.33
2023-01-19T21:29:58.751Z,200.00
2023-01-19T21:31:30.755Z,200.00
2023-01-19T21:33:03.122Z,203.00
2023-01-19T21:34:35.031Z,203.00
2023-01-19T21:36:07.604Z,343.25
2023-01-19T21:37:39.472Z,271.50
2023-01-19T21:39:11.460Z,231.00
2023-01-19T21:40:43.304Z,217.00
2023-01-19T21:42:15.190Z,217.00
2023-01-19T21:43:47.132Z,211.33
2023-01-19T21:45:19.068Z,204.00
2023-01-19T21:46:50.940Z,185.67
2023-01-19T21:48:22.835Z,194.00
2023-01-19T21:49:55.046Z,183.25
2023-01-19T21:51:28.242Z,185.75
2023-01-19T21:53:00.347Z,181.50
2023-01-19T21:54:32.269Z,182.75
2023-01-19T21:56:09.594Z,177.75
2023-01-19T21:57:41.492Z,175.00
2023-01-19T21:59:14.825Z,164.75
2023-01-19T22:00:46.786Z,164.00
2023-01-19T22:02:33.320Z,157.00
2023-01-19T22:04:09.638Z,170.75
2023-01-19T22:05:41.467Z,170.50
2023-01-19T22:07:13.405Z,171.75
2023-01-19T22:08:46.646Z,163.75
2023-01-19T22:10:18.652Z,172.00
2023-01-19T22:11:50.499Z,163.50
2023-01-19T22:13:22.377Z,155.50
2023-01-19T22:14:54.189Z,152.00
2023-01-19T22:16:26.228Z,156.00
2023-01-19T22:17:58.150Z,152.75
2023-01-19T22:19:30.024Z,149.25
2023-01-19T22:21:12.216Z,148.25
2023-01-19T22:22:44.025Z,149.00
2023-01-19T22:24:15.945Z,139.75
2023-01-19T22:25:47.811Z,141.25
2023-01-19T22:27:19.882Z,136.25
2023-01-19T22:28:57.582Z,133.00
2023-01-19T22:30:29.500Z,133.00
2023-01-19T22:32:01.443Z,130.25
2023-01-19T22:33:33.352Z,114.00
2023-01-19T22:35:05.687Z,118.00
2023-01-19T22:36:37.922Z,115.75
2023-01-19T22:38:09.771Z,119.00
2023-01-19T22:39:42.900Z,120.00
2023-01-19T22:41:16.750Z,110.00
2023-01-19T22:42:48.871Z,111.40
2023-01-19T22:44:21.724Z,111.00
2023-01-19T22:45:53.702Z,102.40
2023-01-19T22:47:25.597Z,106.20
2023-01-19T22:48:58.711Z,107.60
2023-01-19T22:50:30.605Z,96.80
2023-01-19T22:52:02.440Z,90.50
2023-01-19T22:53:34.388Z,86.25
2023-01-19T22:55:06.498Z,91.75
2023-01-19T22:56:39.076Z,82.25
2023-01-19T22:58:10.909Z,89.75
2023-01-19T22:59:43.770Z,85.00
2023-01-19T23:01:42.982Z,85.50
2023-01-19T23:03:14.988Z,83.00
2023-01-19T23:04:46.839Z,84.00
2023-01-19T23:06:23.244Z,77.25
2023-01-19T23:07:55.105Z,80.00
2023-01-19T23:09:26.960Z,79.50
2023-01-19T23:10:58.974Z,69.00
2023-01-19T23:12:30.845Z,76.00
2023-01-19T23:14:02.914Z,73.50
2023-01-19T23:15:35.143Z,74.00
2023-01-19T23:17:07.059Z,62.25
2023-01-19T23:18:39.263Z,61.50
2023-01-19T23:20:11.751Z,66.25
2023-01-19T23:21:43.693Z,63.25
2023-01-19T23:23:15.594Z,58.75
2023-01-19T23:24:47.507Z,64.25
2023-01-19T23:26:19.685Z,65.50
2023-01-19T23:27:51.612Z,57.00
2023-01-19T23:29:23.565Z,54.25
2023-01-19T23:30:55.511Z,55.00
2023-01-19T23:32:27.517Z,56.75
2023-01-19T23:34:01.785Z,50.75
